Lucas Tavares

Scout - Fluminense
4 Apr 2027
Sunday
Process

Personality

Adaptability (2) Ambition (6) Controversy (1) Loyalty (19) Pressure (13) Professionalism (3) Sportsmanship (15) Temperament (4)

Profile

Coaching Style Democratic
License Continental B
Determination 15
Man Management 9
Motivating 14
Discipline 13
Job Satisfaction
100%
Fatigue
0%
Role Scout
Wage 60.8K p/w
Contract 14.03.2028

Performance

Behaviour Good
Training Effectiveness
58%
Player Development
35%
Injury Prevention
40%
Tactical Implementation
65%

Recent Events

Attended a recruitment meeting now
Assessed a player now
Assessed a player 7d ago
Attended a recruitment meeting 7d ago
Assessed a player 7d ago
Assessed a player 7d ago
Assessed a player 7d ago
Assessed a player 7d ago

Currently Monitoring

103
Player Club Status Ability Confidence Watched Last Observed Latest Vote
Eduardo Felicíssimo Sporting CP Active 106 / 113 40% 3 02.04.2027 -
Louis Leroux FC Nantes Active 119 / 125 40% 1 02.04.2027 -
Martim Cunha Porto Active 94 / 105 40% 1 02.04.2027 -
Gonçalo Oliveira Benfica Active 111 / 115 40% 3 31.03.2027 -
Vinícius Lira Santos Active 118 / 121 40% 2 31.03.2027 -
Toni Tamarit Alverca Active 120 / 126 40% 1 31.03.2027 -
Anthony Patterson Wrexham Active 139 / 127 40% 4 30.03.2027 -
Michael Cooper Sheffield United Active 140 / 135 40% 5 30.03.2027 -
Myles Roberts Doncaster Rovers Active 95 / 109 40% 2 30.03.2027 -
Bastien Meupiyou Alverca Active 114 / 121 40% 2 28.03.2027 -
Miguel Figueiredo Benfica Active 99 / 117 40% 1 28.03.2027 -
Bilal Bayazıt Kayserispor Active 113 / 128 40% 1 27.03.2027 -
Lorenzo Palmisani Frosinone Active 130 / 135 40% 1 27.03.2027 -
Eddy Doué Estrela da Amadora Active 99 / 110 40% 2 24.03.2027 -
Milan Roganović Partizan Active 113 / 115 40% 1 24.03.2027 -
Eliás Montiel Pachuca Active 129 / 131 40% 1 23.03.2027 -
Moncef Zekri Sporting CP Active 98 / 108 40% 1 23.03.2027 -
Caleb Yirenkyi Coventry City Active 125 / 143 40% 2 22.03.2027 -
Bernardo Lima Porto Active 104 / 102 40% 2 22.03.2027 -
Chris Rigg Sunderland Active 123 / 143 40% 2 20.03.2027 -
Daniel Banjaqui Benfica Active 111 / 116 40% 2 20.03.2027 -
James Dornelly Peterborough United Active 93 / 111 40% 1 20.03.2027 -
Joaquin Seys Club Brugge Active 136 / 126 40% 1 14.03.2027 -
Salvador Blopá Sporting CP Active 109 / 121 40% 1 13.03.2027 -
Jakub Stolarczyk Leicester City Active 136 / 133 40% 5 09.03.2027 -
Adriel Torreense Active 109 / 116 40% 3 09.03.2027 -
Lucas Cañizares Tondela Active 105 / 111 40% 2 09.03.2027 -
Cezary Miszta Rio Ave Active 122 / 127 40% 6 08.03.2027 -
Antonio Gomis Vizela Active 117 / 118 40% 2 08.03.2027 -
Nacer Tielemans Mouscron Active 130 / 131 40% 1 05.03.2027 -
Honest Ahanor Atalanta Active 131 / 130 40% 1 05.03.2027 -
Ruslan Neshcheret Dynamo Kyiv Active 116 / 117 40% 2 04.03.2027 -
Gabriel Brazão Santos Active 130 / 139 40% 8 02.03.2027 -
Zach Hemming Chesterfield Active 98 / 109 40% 1 02.03.2027 -
Lukas Jensen Millwall Active 118 / 117 40% 2 27.02.2027 -
Juan Diego Castillo Vitoria Guimaraes Active 121 / 118 40% 1 27.02.2027 -
Sam Tickle Wigan Athletic Active 138 / 131 40% 4 23.02.2027 -
Taye Ashby-Hammond Walsall Active 108 / 108 40% 3 23.02.2027 -
Mandla Jali SuperSport United Active 115 / 115 40% 2 20.02.2027 -
Nathan Bishop AFC Wimbledon Active 109 / 103 40% 2 20.02.2027 -
Will Dennis Milton Keynes Dons Active 105 / 106 40% 1 20.02.2027 -
Jordan Amissah Burton Albion Active 107 / 109 40% 1 14.02.2027 -
Bernardo Fontes Braga Active 137 / 124 40% 4 13.02.2027 -
Edoardo Corvi Parma Active 138 / 137 40% 1 09.02.2027 -
Egoitz Arana Real Sociedad Active 107 / 108 40% 1 09.02.2027 -
Christian Joel Sánchez Leiria Active 109 / 113 40% 3 06.02.2027 -
Vitor Hugo Lusitânia Lourosa Active 100 / 108 40% 2 31.01.2027 -
Axel Alderweireld KV Oostende Active 144 / 136 40% 1 31.01.2027 -
Jakub Surovčík Sparta Prague Active 112 / 114 40% 1 31.01.2027 -
Alfonso Pastor Maritimo Active 109 / 103 40% 4 25.01.2027 -
Oleksandr Saputin Zorya Active 127 / 127 40% 1 25.01.2027 -
Leo Kokubo Sint-Truiden Active 120 / 113 40% 1 25.01.2027 -
Elia Caprile Cagliari Active 140 / 140 40% 1 21.01.2027 -
Hugo Souza Corinthians Active 130 / 135 40% 6 09.01.2027 -
Yehvann Diouf OGC Nice Active 141 / 131 40% 1 09.01.2027 -
Jamie Cumming Oxford United Active 130 / 118 40% 2 08.01.2027 -
Radek Vítek Middlesbrough Active 129 / 134 40% 4 08.01.2027 -
Iñaki Peña Panathinaikos Active 141 / 134 40% 1 08.01.2027 -
Patrick Sequeira Casa Pia Active 123 / 126 40% 5 20.12.2026 -
Matheus Mendes Alverca Active 128 / 115 40% 2 20.12.2026 -
Mateo Cassierra Atlético Mineiro Rejected 140 / 138 72% 1 02.12.2026 -
Korede Osundina Casa Pia Active 107 / 113 40% 2 27.11.2026 -
José Bica Leixões Active 112 / 103 40% 2 27.11.2026 -
Efraín Álvarez Guadalajara Active 129 / 134 40% 1 27.11.2026 -
Vinícius Lopes Santa Clara Active 112 / 124 40% 2 25.11.2026 -
Martín Tejón Maritimo Active 108 / 118 40% 2 25.11.2026 -
Cesar Corona Veracruz Active 144 / 137 40% 1 25.11.2026 -
Óscar Aranda Espanyol Active 131 / 127 40% 2 24.11.2026 -
Giorgos Koutsias Famalicao Active 111 / 126 40% 1 24.11.2026 -
Gustavo Silva Vitoria Guimaraes Active 120 / 124 40% 1 24.11.2026 -
Sydney van Hooijdonk Estrela da Amadora Active 118 / 113 40% 2 15.11.2026 -
Lucas Duarte Felgueiras Active 103 / 106 40% 3 15.11.2026 -
Lazar Carević Famalicao Active 129 / 133 40% 4 13.11.2026 -
Leo Román Deportivo La Coruña Active 149 / 149 40% 3 13.11.2026 -
João Valido Chaves Active 118 / 116 40% 4 12.11.2026 -
Camilo Durán Bloemfontein Celtic Active 111 / 124 40% 2 10.11.2026 -
Tamble Monteiro Rio Ave Active 125 / 124 40% 1 10.11.2026 -
Nicolò Tresoldi Club Brugge Active 122 / 132 40% 1 10.11.2026 -
Luis Ingolotti Atlético Tucumán Active 121 / 122 40% 2 08.11.2026 -
Alexandre Duville-Parsemain Moreirense Active 115 / 113 40% 2 05.11.2026 -
Carl Rushworth Coventry City Active 142 / 134 40% 2 03.11.2026 -
Nicolás Sumavil Platense Active 122 / 112 40% 3 29.10.2026 -
Sebastián Meza Huracán Active 129 / 126 40% 1 27.10.2026 -
Manuel Baldé Wadi Degla Active 106 / 92 40% 2 21.10.2026 -
Esteban Glellel Shonan Bellmare Active 115 / 112 40% 1 18.10.2026 -
João Costa Santa Clara Active 120 / 112 40% 1 16.10.2026 -
Louis Munteanu DC United Active 131 / 129 40% 1 16.10.2026 -
Luca Orellano Monterrey Active 141 / 130 40% 2 14.10.2026 -
Jalen Blesa Rio Ave Active 113 / 111 40% 1 14.10.2026 -
Michy Fellaini KV Oostende Active 145 / 139 40% 1 13.10.2026 -
Luan Santos Imotski Active 101 / 90 40% 1 13.10.2026 -
Cheikh Sabaly Vancouver Whitecaps Active 120 / 124 40% 1 07.10.2026 -
Alfonso Trezza Arouca Active 120 / 120 40% 1 02.10.2026 -
Henrique Araújo Casa Pia Active 122 / 127 40% 2 29.09.2026 -
Tiago Silva Penafiel Active 104 / 111 40% 1 28.09.2026 -
Lucão Gil Vicente Active 115 / 119 40% 1 22.09.2026 -
Dylan Nandín Arouca Active 120 / 110 40% 1 14.09.2026 -
Samuel Soares Benfica Active 124 / 134 40% 1 13.09.2026 -
Roberto Fernández Braga Active 141 / 145 40% 1 11.09.2026 -
Gabriel Barbosa Farense Active 116 / 113 40% 1 11.09.2026 -
Figueiredo Alverca Active 122 / 125 40% 1 01.09.2026 -
Vitor Roque Palmeiras Active 135 / 150 40% 1 01.09.2026 -
Pau Víctor Braga Active 143 / 134 40% 1 01.09.2026 -